Terminal Aerodrome Forecast
Issued by NWS Lake Charles, LA

Home | Current Version | Previous Version | Text Only | Print | Product List | Glossary On
Versions: 1 2 3 4 5 6 7 8 9 10 11 12 13 14 15 16
855
FTUS44 KLCH 211126
TAFARA
TAF
KARA 211126Z 2112/2212 00000KT 6SM BR SCT090 BKN250
     FM211400 VRB03KT P6SM VCSH SCT025 BKN100
     FM211800 18007KT P6SM VCTS BKN050CB PROB30 2121/2124 4SM -TSRA
     FM220100 VRB03KT P6SM BKN250=

USA.gov is the U.S. government's official web portal to all federal, state and local government web resources and services.